Station: Dennes Point  

  Atmospheric Gas Attenuation - ITU Rec 676-11   ----------------- dB/100km -----------------
Date Time Temp RH % AH g/m3 Dew Point Wind Direction Speed kph Gust kph Barometer mB Rainfall Since 9am 24GHz 47GHz 76GHz 122GHz 134GHz 241GHz
08/05 12:30 12.8 62 6.95 5.7 17 26 1015.3 0 16.1 23.6 33.9 88.6 78.4 268.2
08/05 12:20 12.9 62 6.99 5.8 20 26 1015.1 0 16.2 23.7 34.0 88.9 78.8 269.6
08/05 12:10 12.9 60 6.76 5.5 20 26 1015 0 15.7 23.3 33.1 86.5 75.9 259.5
08/05 12:00 13 61 6.92 5.7 17 24 1015 0 16.0 23.5 33.7 88.1 77.8 266.2
08/05 11:50 13 61 6.92 5.6 15 17 1015 0 16.0 23.5 33.7 88.1 77.8 266.2
08/05 11:40 12.7 60 6.68 5.3 19 22 1014.9 0 15.5 23.2 32.9 85.9 75.1 256.6
08/05 11:30 13.3 61 7.05 5.9 28 41 1014.9 0 16.3 23.6 34.0 89.0 79.1 270.9
08/05 11:20 12.8 62 6.95 5.7 26 32 1014.7 0 16.1 23.6 33.9 88.6 78.4 268.1
08/05 11:10 12.7 63 7.01 6 17 20 1014.6 0 16.2 23.7 34.1 89.3 79.2 271.1
08/05 11:00 12.5 62 6.82 5.4 19 32 1014.5 0 15.8 23.5 33.5 87.5 77.0 263.3
08/05 10:50 12.4 62 6.77 5.3 13 17 1014.5 0 15.7 23.4 33.3 87.1 76.5 261.5
08/05 10:40 12.2 62 6.69 5.3 24 26 1014.4 0 15.6 23.4 33.1 86.5 75.6 258.6
08/05 10:30 12.2 62 6.69 5.1 26 39 1014.2 0 15.6 23.4 33.1 86.5 75.6 258.5
08/05 10:20 12.2 64 6.91 5.6 35 44 1014 0 16.1 23.7 33.9 88.7 78.4 268.2
08/05 10:10 12 62 6.61 5.1 30 35 1014 0 15.4 23.3 32.9 85.9 74.8 255.6
08/05 10:00 12.1 64 6.86 5.5 24 35 1014 0 15.9 23.6 33.8 88.3 77.9 266.3
08/05 09:50 11.6 65 6.76 5.2 35 39 1013.9 0 15.8 23.6 33.6 87.9 77.1 263.5
08/05 09:40 12 64 6.82 5.4 32 35 1013.8 0 15.9 23.6 33.7 88.0 77.4 264.8
08/05 09:30 11.8 68 7.16 6.1 19 30 1013.8 0 16.6 24.2 35.1 91.8 82.0 280.7
08/05 09:20 11.2 69 7 5.7 19 22 1013.7 0 16.3 24.1 34.7 90.8 80.5 275.6
08/05 09:10 11.6 65 6.76 5.4 33 44 1013.4 0 15.8 23.6 33.6 87.8 77.0 263.4
08/05 09:00 11.6 63 6.55 4.8 32 43 1013.2 0 15.3 23.3 32.8 85.6 74.4 254.1
08/05 08:50 11.7 64 6.69 5.1 28 35 1013 0.8 15.6 23.4 33.3 86.9 76.0 259.9
08/05 08:40 11.5 65 6.71 5.1 32 35 1012.9 0.8 15.7 23.5 33.4 87.4 76.5 261.4
08/05 08:30 11.2 68 6.89 5.5 24 37 1012.8 0.8 16.0 23.9 34.2 89.5 79.1 270.4
08/05 08:20 11.1 67 6.75 5.2 22 28 1012.7 0.8 15.8 23.7 33.7 88.2 77.4 264.5
08/05 08:10 11.2 69 7 5.7 24 28 1012.4 0.8 16.3 24.0 34.6 90.7 80.4 275.3
08/05 08:00 10.9 71 7.06 5.9 28 35 1012.3 0.8 16.4 24.2 35.0 91.6 81.5 279.0
08/05 07:50 10.6 73 7.13 5.9 26 30 1012.1 0.8 16.6 24.4 35.4 92.7 82.7 283.2
08/05 07:40 10.8 70 6.92 5.5 30 33 1011.9 0.8 16.1 24.0 34.5 90.2 79.8 272.9
08/05 07:30 10.8 70 6.92 5.6 20 32 1011.7 0.8 16.1 24.0 34.5 90.2 79.8 272.9
08/05 07:20 10.4 72 6.94 5.7 15 19 1011.7 0.8 16.2 24.1 34.7 90.9 80.4 275.2
08/05 07:10 10.3 70 6.71 5.2 20 28 1011.6 0.8 15.7 23.8 33.9 88.6 77.6 265.1
08/05 07:00 10.5 69 6.69 5.1 13 20 1011.4 0.8 15.7 23.7 33.7 88.1 77.1 263.5
08/05 06:50 10.6 70 6.83 5.3 11 15 1011.2 0.8 15.9 23.9 34.2 89.4 78.8 269.4
08/05 06:40 10.4 70 6.75 5.3 15 19 1011.1 0.8 15.8 23.8 33.9 88.8 78.0 266.4
08/05 06:30 10.3 71 6.8 5.3 15 24 1011 0.8 15.9 23.9 34.2 89.5 78.7 269.0
08/05 06:20 10.8 70 6.92 5.5 19 22 1010.9 0.8 16.1 24.0 34.4 90.1 79.7 272.7
08/05 06:10 11.2 68 6.89 5.5 28 33 1010.5 0.8 16.1 23.8 34.1 89.3 78.9 269.9
08/05 06:00 11.2 68 6.89 5.5 28 46 1010.3 0.8 16.1 23.8 34.1 89.3 78.9 269.9
08/05 05:50 11 69 6.91 5.5 22 24 1009.8 0.8 16.1 23.8 34.3 89.7 79.3 271.3
08/05 05:40 11.1 68 6.85 5.4 28 33 1009.5 0.8 16.0 23.7 34.0 88.9 78.4 268.2
08/05 05:30 11.1 70 7.05 5.8 32 44 1009.4 0.8 16.4 24.0 34.8 91.0 81.0 277.2
08/05 05:20 11.1 70 7.05 5.8 30 33 1009.3 0.8 16.4 24.0 34.7 91.0 81.0 277.2
08/05 05:10 11.4 69 7.08 5.9 30 37 1009 0.8 16.4 24.0 34.7 90.9 81.0 277.4
08/05 05:00 11.1 69 6.95 5.6 30 46 1008.9 0.8 16.2 23.9 34.3 89.9 79.7 272.6
08/05 04:50 11.3 71 7.24 6.2 28 39 1008.4 0.8 16.8 24.2 35.4 92.7 83.2 284.8
08/05 04:40 10.8 72 7.12 5.9 26 32 1008.3 0.8 16.6 24.2 35.1 92.0 82.1 281.2
08/05 04:30 11.2 70 7.1 5.9 30 46 1008.2 0.8 16.5 24.0 34.9 91.3 81.4 278.8
08/05 04:20 11.2 69 7 5.7 28 33 1007.9 0.8 16.3 23.9 34.4 90.2 80.1 274.2
08/05 04:10 10.9 72 7.16 6 24 30 1007.7 0.8 16.6 24.2 35.2 92.2 82.5 282.5
08/05 04:00 11.3 69 7.04 5.8 32 43 1007.5 0.8 16.4 23.9 34.5 90.5 80.5 275.6
08/05 03:50 11.2 69 7 5.7 30 35 1007.3 0.8 16.3 23.8 34.4 90.2 80.1 274.1
08/05 03:40 11.2 68 6.89 5.5 35 43 1007.1 0.8 16.1 23.7 34.0 89.0 78.7 269.1
08/05 03:30 11.4 68 6.98 5.7 32 43 1007 0.8 16.2 23.7 34.2 89.7 79.6 272.4
08/05 03:20 11.3 68 6.94 5.6 41 52 1006.8 0.8 16.2 23.7 34.1 89.4 79.2 271.0
08/05 03:10 11.5 68 7.02 5.8 41 50 1006.9 0.8 16.3 23.8 34.4 90.0 80.0 273.9
08/05 03:00 11.6 69 7.17 6.1 39 61 1006.8 0.8 16.6 24.0 34.9 91.4 81.8 280.2
08/05 02:50 11.4 70 7.19 6.1 33 39 1006.6 0.8 16.7 24.1 35.0 91.8 82.3 281.8
08/05 02:40 11.5 68 7.02 5.8 37 44 1006.7 0.8 16.3 23.8 34.3 90.0 80.0 273.8
08/05 02:30 11.7 68 7.11 6 33 44 1006.5 0.8 16.5 23.9 34.6 90.7 80.9 277.1
08/05 02:20 11.8 69 7.26 6.3 35 41 1006.4 0.8 16.8 24.1 35.1 92.1 82.7 283.5
08/05 02:10 11.8 74 7.79 7.3 24 35 1006.5 0.8 18.0 24.9 37.2 97.7 89.6 307.6
08/05 02:00 11.6 75 7.8 7.3 26 39 1006.3 0.8 18.0 25.0 37.4 98.0 90.0 308.8
08/05 01:50 11.5 76 7.85 7.4 28 32 1006.2 0.8 18.1 25.1 37.6 98.7 90.7 311.5
08/05 01:40 11.5 78 8.06 7.9 32 35 1006.1 0.8 18.5 25.4 38.4 100.9 93.5 321.2
08/05 01:30 11.2 81 8.21 8.1 20 30 1006.2 0.8 18.9 25.7 39.2 102.9 95.9 329.5
08/05 01:20 11.2 78 7.91 7.5 20 28 1006.1 0.8 18.2 25.3 38.0 99.7 91.9 315.4
08/05 01:10 11.9 74 7.84 7.4 26 30 1006 0.8 18.1 24.9 37.4 98.0 90.1 309.4
08/05 01:00 12 72 7.67 7.1 20 28 1005.8 0.8 17.7 24.6 36.6 96.1 87.8 301.2
08/05 00:50 11.9 73 7.73 7.2 22 26 1005.6 0.8 17.8 24.7 36.9 96.8 88.7 304.2
08/05 00:40 11.9 73 7.73 7.2 22 24 1005.6 0.8 17.8 24.7 36.9 96.8 88.7 304.2
08/05 00:30 11.8 74 7.79 7.3 19 24 1005.6 0.8 18.0 24.9 37.2 97.6 89.6 307.4
08/05 00:20 11.9 74 7.84 7.4 19 22 1005.6 0.8 18.1 24.9 37.3 98.0 90.1 309.3
08/05 00:10 11.8 74 7.79 7.3 19 20 1005.5 0.8 18.0 24.9 37.2 97.6 89.5 307.3
08/05 00:00 12 75 7.99 7.7 19 24 1005.4 0.8 18.4 25.1 37.9 99.4 91.9 315.7
07/05 23:50 12 75 7.99 7.7 22 26 1005.3 0.8 18.4 25.1 37.9 99.4 91.9 315.7
07/05 23:40 11.8 77 8.11 7.9 15 22 1005.3 0.8 18.6 25.4 38.5 101.0 93.8 322.1
07/05 23:30 11.3 81 8.26 8.2 9 19 1005.3 0.8 19.0 25.8 39.3 103.2 96.4 331.2
07/05 23:20 11.2 83 8.41 8.4 7 9 1005.2 0.8 19.3 26.0 40.0 105.0 98.5 338.6
07/05 23:10 11.2 84 8.52 8.6 11 13 1005.1 0.8 19.6 26.2 40.4 106.2 100.0 343.8
07/05 23:00 11.4 84 8.62 8.8 17 24 1005.1 0.8 19.8 26.3 40.7 107.0 101.1 347.7
07/05 22:50 11.6 84 8.73 9 15 17 1005.2 0.8 20.0 26.5 41.1 108.0 102.3 352.0
07/05 22:40 11.4 84 8.62 8.8 9 13 1005.4 0.8 19.8 26.3 40.7 107.1 101.1 347.8
07/05 22:30 11.6 84 8.73 9 11 22 1005.3 0.6 20.0 26.5 41.1 108.0 102.3 352.1
07/05 22:20 11.4 84 8.62 8.9 15 19 1005.1 0.6 19.8 26.3 40.7 107.0 101.1 347.7
07/05 22:10 11.2 84 8.52 8.7 13 15 1005.2 0.6 19.6 26.2 40.4 106.2 100.0 343.8
07/05 22:00 11 85 8.51 8.6 13 17 1005.2 0.6 19.5 26.3 40.5 106.4 100.1 344.3
07/05 21:50 11.2 84 8.52 8.7 15 17 1005.1 0.6 19.6 26.2 40.4 106.2 100.0 343.8
07/05 21:40 11.2 84 8.52 8.6 19 22 1005.1 0.6 19.6 26.2 40.4 106.2 100.0 343.8
07/05 21:30 11.4 81 8.32 8.3 20 30 1005.1 0.4 19.1 25.8 39.5 103.7 97.0 333.5
07/05 21:20 11.3 77 7.86 7.4 15 17 1005 0.4 18.1 25.1 37.7 98.9 91.0 312.4
07/05 21:10 11.3 77 7.86 7.4 19 20 1004.9 0.2 18.1 25.1 37.7 98.9 91.0 312.4
07/05 21:00 11.1 74 7.46 6.6 15 19 1005.1 0.2 17.3 24.5 36.2 94.9 86.0 294.8
07/05 20:50 10.9 73 7.26 6.2 17 20 1004.9 0.2 16.9 24.2 35.5 93.0 83.6 286.4
07/05 20:40 10.6 73 7.13 5.9 13 15 1004.9 0.2 16.6 24.1 35.1 92.0 82.2 281.5
07/05 20:30 10.6 72 7.03 5.8 13 17 1005.1 0.2 16.4 24.0 34.7 90.9 80.9 277.0
07/05 20:20 10.5 70 6.79 5.4 11 13 1005.1 0.2 15.9 23.6 33.8 88.6 78.0 266.6
07/05 20:10 10.5 68 6.6 4.8 7 11 1005.1 0 15.5 23.3 33.1 86.6 75.5 258.0
07/05 20:00 10.1 68 6.43 4.5 7 13 1005.1 0 15.1 23.2 32.6 85.3 73.8 251.8

Last Refresh: 08-May-2026 12:08:16

Bureau of Meteorology